sensor_id;sensor_type;location;lat;lon;timestamp;P1;durP1;ratioP1;P2;durP2;ratioP2
57599;SDS011;43426;43.594;24.334;2023-02-08T00:03:35;55.00;;;27.20;;
57599;SDS011;43426;43.594;24.334;2023-02-08T00:06:01;47.72;;;25.38;;
57599;SDS011;43426;43.594;24.334;2023-02-08T00:08:28;53.72;;;26.45;;
57599;SDS011;43426;43.594;24.334;2023-02-08T00:10:53;51.42;;;26.77;;
57599;SDS011;43426;43.594;24.334;2023-02-08T00:13:18;50.63;;;25.90;;
57599;SDS011;43426;43.594;24.334;2023-02-08T00:15:45;52.75;;;26.38;;
57599;SDS011;43426;43.594;24.334;2023-02-08T00:18:11;47.10;;;25.08;;
57599;SDS011;43426;43.594;24.334;2023-02-08T00:20:40;48.28;;;24.77;;
57599;SDS011;43426;43.594;24.334;2023-02-08T00:23:06;46.22;;;24.77;;
57599;SDS011;43426;43.594;24.334;2023-02-08T00:25:32;52.17;;;26.77;;
57599;SDS011;43426;43.594;24.334;2023-02-08T00:27:58;48.88;;;25.25;;
57599;SDS011;43426;43.594;24.334;2023-02-08T00:30:23;47.78;;;25.52;;
57599;SDS011;43426;43.594;24.334;2023-02-08T00:32:49;47.28;;;25.33;;
57599;SDS011;43426;43.594;24.334;2023-02-08T00:35:14;48.20;;;25.48;;
57599;SDS011;43426;43.594;24.334;2023-02-08T00:37:40;45.45;;;24.88;;
57599;SDS011;43426;43.594;24.334;2023-02-08T00:40:05;49.08;;;26.15;;
57599;SDS011;43426;43.594;24.334;2023-02-08T00:42:31;49.40;;;26.20;;
57599;SDS011;43426;43.594;24.334;2023-02-08T00:44:57;46.60;;;25.45;;
57599;SDS011;43426;43.594;24.334;2023-02-08T00:47:23;51.33;;;25.75;;
57599;SDS011;43426;43.594;24.334;2023-02-08T00:49:48;47.42;;;25.25;;
57599;SDS011;43426;43.594;24.334;2023-02-08T00:52:14;51.78;;;26.13;;
57599;SDS011;43426;43.594;24.334;2023-02-08T00:54:40;43.95;;;25.15;;
57599;SDS011;43426;43.594;24.334;2023-02-08T00:59:31;46.38;;;24.48;;
57599;SDS011;43426;43.594;24.334;2023-02-08T01:01:57;42.00;;;23.85;;
57599;SDS011;43426;43.594;24.334;2023-02-08T01:04:22;48.70;;;24.85;;
57599;SDS011;43426;43.594;24.334;2023-02-08T01:06:48;46.90;;;24.30;;
57599;SDS011;43426;43.594;24.334;2023-02-08T01:09:13;49.20;;;25.60;;
57599;SDS011;43426;43.594;24.334;2023-02-08T01:11:39;50.65;;;26.52;;
57599;SDS011;43426;43.594;24.334;2023-02-08T01:14:04;50.65;;;26.98;;
57599;SDS011;43426;43.594;24.334;2023-02-08T01:16:30;43.57;;;24.93;;
57599;SDS011;43426;43.594;24.334;2023-02-08T01:18:58;45.95;;;26.13;;
57599;SDS011;43426;43.594;24.334;2023-02-08T01:21:26;52.63;;;27.75;;
57599;SDS011;43426;43.594;24.334;2023-02-08T01:23:56;51.58;;;26.63;;
57599;SDS011;43426;43.594;24.334;2023-02-08T01:26:22;54.05;;;27.73;;
57599;SDS011;43426;43.594;24.334;2023-02-08T01:28:50;47.78;;;26.42;;
57599;SDS011;43426;43.594;24.334;2023-02-08T01:31:23;45.65;;;25.63;;
57599;SDS011;43426;43.594;24.334;2023-02-08T01:33:52;48.50;;;26.80;;
57599;SDS011;43426;43.594;24.334;2023-02-08T01:36:18;49.50;;;26.38;;
57599;SDS011;43426;43.594;24.334;2023-02-08T01:38:44;53.30;;;27.17;;
57599;SDS011;43426;43.594;24.334;2023-02-08T01:41:15;44.63;;;25.38;;
57599;SDS011;43426;43.594;24.334;2023-02-08T01:45:07;52.83;;;26.17;;
57599;SDS011;43426;43.594;24.334;2023-02-08T01:47:10;49.58;;;25.38;;
57599;SDS011;43426;43.594;24.334;2023-02-08T01:49:36;50.28;;;27.30;;
57599;SDS011;43426;43.594;24.334;2023-02-08T01:52:06;53.47;;;26.88;;
57599;SDS011;43426;43.594;24.334;2023-02-08T01:54:42;52.08;;;27.50;;
57599;SDS011;43426;43.594;24.334;2023-02-08T01:57:11;51.55;;;26.15;;
57599;SDS011;43426;43.594;24.334;2023-02-08T01:59:40;48.97;;;26.15;;
57599;SDS011;43426;43.594;24.334;2023-02-08T02:02:10;47.10;;;26.27;;
57599;SDS011;43426;43.594;24.334;2023-02-08T02:04:38;44.63;;;26.27;;
57599;SDS011;43426;43.594;24.334;2023-02-08T02:07:06;49.10;;;26.45;;
57599;SDS011;43426;43.594;24.334;2023-02-08T02:09:40;54.03;;;28.00;;
57599;SDS011;43426;43.594;24.334;2023-02-08T02:12:09;48.88;;;25.27;;
57599;SDS011;43426;43.594;24.334;2023-02-08T02:14:36;50.95;;;26.15;;
57599;SDS011;43426;43.594;24.334;2023-02-08T02:17:03;52.40;;;26.55;;
57599;SDS011;43426;43.594;24.334;2023-02-08T02:20:13;53.33;;;27.00;;
57599;SDS011;43426;43.594;24.334;2023-02-08T02:30:39;65.70;;;28.67;;
57599;SDS011;43426;43.594;24.334;2023-02-08T02:39:04;50.10;;;26.10;;
57599;SDS011;43426;43.594;24.334;2023-02-08T02:50:39;52.17;;;27.17;;
57599;SDS011;43426;43.594;24.334;2023-02-08T02:53:10;62.13;;;29.23;;
57599;SDS011;43426;43.594;24.334;2023-02-08T02:55:39;58.25;;;29.92;;
57599;SDS011;43426;43.594;24.334;2023-02-08T02:58:09;59.50;;;28.13;;
57599;SDS011;43426;43.594;24.334;2023-02-08T03:00:37;64.25;;;29.58;;
57599;SDS011;43426;43.594;24.334;2023-02-08T03:03:03;59.05;;;29.73;;
57599;SDS011;43426;43.594;24.334;2023-02-08T03:05:30;60.15;;;29.35;;
57599;SDS011;43426;43.594;24.334;2023-02-08T03:08:00;60.40;;;30.10;;
57599;SDS011;43426;43.594;24.334;2023-02-08T03:22:16;61.10;;;30.38;;
57599;SDS011;43426;43.594;24.334;2023-02-08T03:24:53;51.47;;;27.00;;
57599;SDS011;43426;43.594;24.334;2023-02-08T03:27:28;55.95;;;27.58;;
57599;SDS011;43426;43.594;24.334;2023-02-08T03:30:24;62.20;;;29.65;;
57599;SDS011;43426;43.594;24.334;2023-02-08T03:38:14;52.50;;;25.00;;
57599;SDS011;43426;43.594;24.334;2023-02-08T03:40:47;52.50;;;25.65;;
57599;SDS011;43426;43.594;24.334;2023-02-08T03:43:17;51.90;;;26.17;;
57599;SDS011;43426;43.594;24.334;2023-02-08T03:45:49;50.72;;;27.08;;
57599;SDS011;43426;43.594;24.334;2023-02-08T03:48:21;57.47;;;28.02;;
57599;SDS011;43426;43.594;24.334;2023-02-08T03:50:50;58.17;;;27.67;;
57599;SDS011;43426;43.594;24.334;2023-02-08T03:53:19;57.33;;;27.67;;
57599;SDS011;43426;43.594;24.334;2023-02-08T03:55:47;49.95;;;24.92;;
57599;SDS011;43426;43.594;24.334;2023-02-08T03:58:18;51.33;;;25.52;;
57599;SDS011;43426;43.594;24.334;2023-02-08T04:00:56;53.70;;;26.20;;
57599;SDS011;43426;43.594;24.334;2023-02-08T04:05:53;44.42;;;23.35;;
57599;SDS011;43426;43.594;24.334;2023-02-08T04:08:19;51.97;;;25.45;;
57599;SDS011;43426;43.594;24.334;2023-02-08T04:13:11;51.50;;;25.17;;
57599;SDS011;43426;43.594;24.334;2023-02-08T04:15:36;51.38;;;25.17;;
57599;SDS011;43426;43.594;24.334;2023-02-08T04:18:02;48.42;;;24.13;;
57599;SDS011;43426;43.594;24.334;2023-02-08T04:20:31;46.25;;;23.35;;
57599;SDS011;43426;43.594;24.334;2023-02-08T04:22:56;44.05;;;22.73;;
57599;SDS011;43426;43.594;24.334;2023-02-08T04:25:22;42.85;;;21.67;;
57599;SDS011;43426;43.594;24.334;2023-02-08T04:27:48;43.85;;;22.88;;
57599;SDS011;43426;43.594;24.334;2023-02-08T04:30:13;41.47;;;23.73;;
57599;SDS011;43426;43.594;24.334;2023-02-08T04:32:39;41.22;;;24.17;;
57599;SDS011;43426;43.594;24.334;2023-02-08T04:35:04;46.00;;;24.13;;
57599;SDS011;43426;43.594;24.334;2023-02-08T04:37:30;44.08;;;25.50;;
57599;SDS011;43426;43.594;24.334;2023-02-08T04:39:56;42.72;;;24.42;;
57599;SDS011;43426;43.594;24.334;2023-02-08T04:42:21;46.70;;;25.73;;
57599;SDS011;43426;43.594;24.334;2023-02-08T04:44:47;46.72;;;24.17;;
57599;SDS011;43426;43.594;24.334;2023-02-08T04:47:12;45.72;;;24.48;;
57599;SDS011;43426;43.594;24.334;2023-02-08T04:49:37;47.25;;;25.27;;
57599;SDS011;43426;43.594;24.334;2023-02-08T04:52:03;43.47;;;23.80;;
57599;SDS011;43426;43.594;24.334;2023-02-08T04:54:28;48.03;;;24.55;;
57599;SDS011;43426;43.594;24.334;2023-02-08T04:56:54;47.17;;;23.98;;
57599;SDS011;43426;43.594;24.334;2023-02-08T04:59:20;44.45;;;22.73;;
57599;SDS011;43426;43.594;24.334;2023-02-08T05:01:45;42.03;;;22.25;;
57599;SDS011;43426;43.594;24.334;2023-02-08T05:04:10;46.83;;;24.08;;
57599;SDS011;43426;43.594;24.334;2023-02-08T05:06:36;46.88;;;23.10;;
57599;SDS011;43426;43.594;24.334;2023-02-08T05:09:02;42.15;;;22.08;;
57599;SDS011;43426;43.594;24.334;2023-02-08T05:11:27;45.92;;;23.05;;
57599;SDS011;43426;43.594;24.334;2023-02-08T05:13:53;43.45;;;22.58;;
57599;SDS011;43426;43.594;24.334;2023-02-08T05:16:19;45.47;;;25.00;;
57599;SDS011;43426;43.594;24.334;2023-02-08T05:18:44;53.33;;;26.58;;
57599;SDS011;43426;43.594;24.334;2023-02-08T05:21:10;43.90;;;23.33;;
57599;SDS011;43426;43.594;24.334;2023-02-08T05:23:35;46.83;;;24.40;;
57599;SDS011;43426;43.594;24.334;2023-02-08T05:26:05;46.42;;;23.83;;
57599;SDS011;43426;43.594;24.334;2023-02-08T05:28:32;46.92;;;24.73;;
57599;SDS011;43426;43.594;24.334;2023-02-08T05:30:58;45.17;;;23.98;;
57599;SDS011;43426;43.594;24.334;2023-02-08T05:33:23;53.55;;;25.88;;
57599;SDS011;43426;43.594;24.334;2023-02-08T05:35:48;55.10;;;26.85;;
57599;SDS011;43426;43.594;24.334;2023-02-08T05:38:14;49.35;;;24.80;;
57599;SDS011;43426;43.594;24.334;2023-02-08T05:40:39;43.42;;;25.10;;
57599;SDS011;43426;43.594;24.334;2023-02-08T05:43:05;50.05;;;25.02;;
57599;SDS011;43426;43.594;24.334;2023-02-08T05:47:56;42.95;;;23.52;;
57599;SDS011;43426;43.594;24.334;2023-02-08T05:50:22;45.80;;;24.10;;
57599;SDS011;43426;43.594;24.334;2023-02-08T05:52:47;47.03;;;25.60;;
57599;SDS011;43426;43.594;24.334;2023-02-08T05:55:13;46.13;;;25.23;;
57599;SDS011;43426;43.594;24.334;2023-02-08T05:57:38;44.85;;;24.33;;
57599;SDS011;43426;43.594;24.334;2023-02-08T06:00:03;41.88;;;23.30;;
57599;SDS011;43426;43.594;24.334;2023-02-08T06:04:56;45.35;;;23.75;;
57599;SDS011;43426;43.594;24.334;2023-02-08T06:07:21;44.88;;;23.08;;
57599;SDS011;43426;43.594;24.334;2023-02-08T06:09:47;46.85;;;23.95;;
57599;SDS011;43426;43.594;24.334;2023-02-08T06:12:12;43.00;;;23.08;;
57599;SDS011;43426;43.594;24.334;2023-02-08T06:14:37;45.10;;;24.07;;
57599;SDS011;43426;43.594;24.334;2023-02-08T06:17:03;41.20;;;24.27;;
57599;SDS011;43426;43.594;24.334;2023-02-08T06:19:28;45.95;;;24.73;;
57599;SDS011;43426;43.594;24.334;2023-02-08T06:21:54;42.70;;;23.85;;
57599;SDS011;43426;43.594;24.334;2023-02-08T06:24:19;42.35;;;25.02;;
57599;SDS011;43426;43.594;24.334;2023-02-08T06:26:45;50.45;;;26.15;;
57599;SDS011;43426;43.594;24.334;2023-02-08T06:29:10;48.08;;;25.52;;
57599;SDS011;43426;43.594;24.334;2023-02-08T06:31:36;48.92;;;24.80;;
57599;SDS011;43426;43.594;24.334;2023-02-08T06:34:01;49.47;;;25.75;;
57599;SDS011;43426;43.594;24.334;2023-02-08T06:36:27;47.38;;;25.33;;
57599;SDS011;43426;43.594;24.334;2023-02-08T06:38:52;40.90;;;24.38;;
57599;SDS011;43426;43.594;24.334;2023-02-08T06:41:18;46.75;;;24.90;;
57599;SDS011;43426;43.594;24.334;2023-02-08T06:43:43;44.78;;;25.13;;
57599;SDS011;43426;43.594;24.334;2023-02-08T06:46:09;58.95;;;28.88;;
57599;SDS011;43426;43.594;24.334;2023-02-08T06:48:34;45.42;;;24.65;;
57599;SDS011;43426;43.594;24.334;2023-02-08T06:51:00;42.97;;;23.52;;
57599;SDS011;43426;43.594;24.334;2023-02-08T06:53:25;43.72;;;24.27;;
57599;SDS011;43426;43.594;24.334;2023-02-08T06:55:51;57.70;;;28.58;;
57599;SDS011;43426;43.594;24.334;2023-02-08T07:00:43;100.70;;;49.50;;
57599;SDS011;43426;43.594;24.334;2023-02-08T07:03:09;332.10;;;119.50;;
57599;SDS011;43426;43.594;24.334;2023-02-08T07:05:36;321.30;;;119.03;;
57599;SDS011;43426;43.594;24.334;2023-02-08T07:08:02;143.75;;;66.70;;
57599;SDS011;43426;43.594;24.334;2023-02-08T07:10:28;142.75;;;69.75;;
57599;SDS011;43426;43.594;24.334;2023-02-08T07:12:53;108.93;;;49.55;;
57599;SDS011;43426;43.594;24.334;2023-02-08T07:15:19;59.63;;;34.10;;
57599;SDS011;43426;43.594;24.334;2023-02-08T07:17:44;97.38;;;47.05;;
57599;SDS011;43426;43.594;24.334;2023-02-08T07:20:10;103.82;;;50.08;;
57599;SDS011;43426;43.594;24.334;2023-02-08T07:22:36;85.45;;;42.42;;
57599;SDS011;43426;43.594;24.334;2023-02-08T07:27:28;50.28;;;26.48;;
57599;SDS011;43426;43.594;24.334;2023-02-08T07:29:53;49.63;;;26.43;;
57599;SDS011;43426;43.594;24.334;2023-02-08T07:32:19;71.93;;;41.67;;
57599;SDS011;43426;43.594;24.334;2023-02-08T07:34:44;109.13;;;57.10;;
57599;SDS011;43426;43.594;24.334;2023-02-08T07:37:10;59.35;;;35.33;;
57599;SDS011;43426;43.594;24.334;2023-02-08T07:39:35;64.00;;;36.63;;
57599;SDS011;43426;43.594;24.334;2023-02-08T07:42:01;71.43;;;43.93;;
57599;SDS011;43426;43.594;24.334;2023-02-08T07:44:27;56.08;;;33.75;;
57599;SDS011;43426;43.594;24.334;2023-02-08T07:46:52;62.90;;;36.70;;
57599;SDS011;43426;43.594;24.334;2023-02-08T07:49:18;53.55;;;31.58;;
57599;SDS011;43426;43.594;24.334;2023-02-08T07:51:43;46.33;;;26.02;;
57599;SDS011;43426;43.594;24.334;2023-02-08T07:54:09;37.17;;;22.85;;
57599;SDS011;43426;43.594;24.334;2023-02-08T07:56:34;42.45;;;23.63;;
57599;SDS011;43426;43.594;24.334;2023-02-08T07:58:59;48.33;;;27.70;;
57599;SDS011;43426;43.594;24.334;2023-02-08T08:01:26;36.92;;;23.67;;
57599;SDS011;43426;43.594;24.334;2023-02-08T08:03:51;36.40;;;21.73;;
57599;SDS011;43426;43.594;24.334;2023-02-08T08:06:18;37.97;;;22.10;;
57599;SDS011;43426;43.594;24.334;2023-02-08T08:08:44;31.80;;;20.42;;
57599;SDS011;43426;43.594;24.334;2023-02-08T08:11:11;34.10;;;20.40;;
57599;SDS011;43426;43.594;24.334;2023-02-08T08:13:38;32.75;;;19.45;;
57599;SDS011;43426;43.594;24.334;2023-02-08T08:16:04;31.98;;;20.35;;
57599;SDS011;43426;43.594;24.334;2023-02-08T08:18:32;36.35;;;21.20;;
57599;SDS011;43426;43.594;24.334;2023-02-08T08:20:58;32.55;;;21.20;;
57599;SDS011;43426;43.594;24.334;2023-02-08T08:23:23;30.83;;;19.17;;
57599;SDS011;43426;43.594;24.334;2023-02-08T08:25:48;36.13;;;20.67;;
57599;SDS011;43426;43.594;24.334;2023-02-08T08:28:14;19.35;;;14.02;;
57599;SDS011;43426;43.594;24.334;2023-02-08T08:30:43;26.98;;;16.25;;
57599;SDS011;43426;43.594;24.334;2023-02-08T08:33:09;21.95;;;12.95;;
57599;SDS011;43426;43.594;24.334;2023-02-08T08:38:00;19.10;;;12.02;;
57599;SDS011;43426;43.594;24.334;2023-02-08T08:40:26;21.35;;;14.30;;
57599;SDS011;43426;43.594;24.334;2023-02-08T08:42:51;23.55;;;14.80;;
57599;SDS011;43426;43.594;24.334;2023-02-08T08:45:16;22.38;;;14.80;;
57599;SDS011;43426;43.594;24.334;2023-02-08T08:47:42;20.00;;;13.93;;
57599;SDS011;43426;43.594;24.334;2023-02-08T08:50:07;22.33;;;14.05;;
57599;SDS011;43426;43.594;24.334;2023-02-08T08:52:33;21.52;;;13.07;;
57599;SDS011;43426;43.594;24.334;2023-02-08T08:55:01;21.23;;;13.18;;
57599;SDS011;43426;43.594;24.334;2023-02-08T08:57:26;17.23;;;12.45;;
57599;SDS011;43426;43.594;24.334;2023-02-08T08:59:51;12.48;;;10.80;;
57599;SDS011;43426;43.594;24.334;2023-02-08T09:02:17;17.45;;;10.88;;
57599;SDS011;43426;43.594;24.334;2023-02-08T09:04:42;17.67;;;10.50;;
57599;SDS011;43426;43.594;24.334;2023-02-08T09:07:10;16.55;;;10.13;;
57599;SDS011;43426;43.594;24.334;2023-02-08T09:09:36;14.35;;;8.23;;
57599;SDS011;43426;43.594;24.334;2023-02-08T09:12:02;13.65;;;10.57;;
57599;SDS011;43426;43.594;24.334;2023-02-08T09:14:28;14.60;;;11.10;;
57599;SDS011;43426;43.594;24.334;2023-02-08T09:16:53;16.35;;;11.52;;
57599;SDS011;43426;43.594;24.334;2023-02-08T09:19:19;16.55;;;12.25;;
57599;SDS011;43426;43.594;24.334;2023-02-08T09:21:44;20.08;;;11.73;;
57599;SDS011;43426;43.594;24.334;2023-02-08T09:24:10;14.23;;;10.18;;
57599;SDS011;43426;43.594;24.334;2023-02-08T09:26:36;20.55;;;13.10;;
57599;SDS011;43426;43.594;24.334;2023-02-08T09:29:03;17.92;;;12.80;;
57599;SDS011;43426;43.594;24.334;2023-02-08T09:31:29;16.35;;;11.63;;
57599;SDS011;43426;43.594;24.334;2023-02-08T09:33:58;18.65;;;12.02;;
57599;SDS011;43426;43.594;24.334;2023-02-08T09:36:26;19.50;;;13.05;;
57599;SDS011;43426;43.594;24.334;2023-02-08T09:38:55;21.10;;;13.05;;
57599;SDS011;43426;43.594;24.334;2023-02-08T09:47:13;20.55;;;13.40;;
57599;SDS011;43426;43.594;24.334;2023-02-08T09:49:54;14.15;;;9.95;;
57599;SDS011;43426;43.594;24.334;2023-02-08T09:52:29;15.52;;;8.20;;
57599;SDS011;43426;43.594;24.334;2023-02-08T09:55:01;20.33;;;12.73;;
57599;SDS011;43426;43.594;24.334;2023-02-08T09:57:34;19.58;;;13.30;;
57599;SDS011;43426;43.594;24.334;2023-02-08T10:00:06;19.15;;;13.98;;
57599;SDS011;43426;43.594;24.334;2023-02-08T10:02:38;18.83;;;12.93;;
57599;SDS011;43426;43.594;24.334;2023-02-08T10:05:11;19.33;;;13.55;;
57599;SDS011;43426;43.594;24.334;2023-02-08T10:07:40;17.92;;;12.13;;
57599;SDS011;43426;43.594;24.334;2023-02-08T10:10:11;12.90;;;8.68;;
57599;SDS011;43426;43.594;24.334;2023-02-08T10:12:56;15.55;;;11.70;;
57599;SDS011;43426;43.594;24.334;2023-02-08T10:15:33;17.92;;;11.60;;
57599;SDS011;43426;43.594;24.334;2023-02-08T10:27:09;17.25;;;11.95;;
57599;SDS011;43426;43.594;24.334;2023-02-08T10:32:27;14.13;;;10.13;;
57599;SDS011;43426;43.594;24.334;2023-02-08T10:35:04;17.70;;;11.57;;
57599;SDS011;43426;43.594;24.334;2023-02-08T10:37:36;14.50;;;10.50;;
57599;SDS011;43426;43.594;24.334;2023-02-08T10:51:45;15.43;;;11.07;;
57599;SDS011;43426;43.594;24.334;2023-02-08T10:54:12;14.18;;;11.10;;
57599;SDS011;43426;43.594;24.334;2023-02-08T10:56:40;12.95;;;10.15;;
57599;SDS011;43426;43.594;24.334;2023-02-08T10:59:17;14.20;;;11.18;;
57599;SDS011;43426;43.594;24.334;2023-02-08T11:01:46;12.05;;;9.75;;
57599;SDS011;43426;43.594;24.334;2023-02-08T11:04:12;16.02;;;10.55;;
57599;SDS011;43426;43.594;24.334;2023-02-08T11:06:40;15.23;;;10.82;;
57599;SDS011;43426;43.594;24.334;2023-02-08T11:09:18;19.08;;;11.43;;
57599;SDS011;43426;43.594;24.334;2023-02-08T11:11:50;15.15;;;10.65;;
57599;SDS011;43426;43.594;24.334;2023-02-08T11:14:22;15.77;;;10.50;;
57599;SDS011;43426;43.594;24.334;2023-02-08T11:16:51;18.35;;;10.52;;
57599;SDS011;43426;43.594;24.334;2023-02-08T11:19:21;16.08;;;9.82;;
57599;SDS011;43426;43.594;24.334;2023-02-08T11:21:58;15.85;;;11.20;;
57599;SDS011;43426;43.594;24.334;2023-02-08T11:24:32;18.10;;;12.70;;
57599;SDS011;43426;43.594;24.334;2023-02-08T11:32:41;13.23;;;9.82;;
57599;SDS011;43426;43.594;24.334;2023-02-08T11:37:55;16.48;;;11.52;;
57599;SDS011;43426;43.594;24.334;2023-02-08T11:42:58;15.70;;;11.23;;
57599;SDS011;43426;43.594;24.334;2023-02-08T11:45:24;18.13;;;11.65;;
57599;SDS011;43426;43.594;24.334;2023-02-08T11:47:53;19.60;;;11.60;;
57599;SDS011;43426;43.594;24.334;2023-02-08T11:50:29;18.27;;;12.98;;
57599;SDS011;43426;43.594;24.334;2023-02-08T11:52:57;15.63;;;10.50;;
57599;SDS011;43426;43.594;24.334;2023-02-08T11:55:45;19.42;;;11.88;;
57599;SDS011;43426;43.594;24.334;2023-02-08T11:58:25;18.75;;;12.68;;
57599;SDS011;43426;43.594;24.334;2023-02-08T12:00:58;17.25;;;12.38;;
57599;SDS011;43426;43.594;24.334;2023-02-08T12:03:31;15.70;;;10.77;;
57599;SDS011;43426;43.594;24.334;2023-02-08T12:11:38;17.30;;;11.27;;
57599;SDS011;43426;43.594;24.334;2023-02-08T12:16:53;17.65;;;12.43;;
57599;SDS011;43426;43.594;24.334;2023-02-08T12:22:24;16.15;;;12.40;;
57599;SDS011;43426;43.594;24.334;2023-02-08T12:43:38;19.48;;;12.30;;
57599;SDS011;43426;43.594;24.334;2023-02-08T12:47:06;19.10;;;12.27;;
57599;SDS011;43426;43.594;24.334;2023-02-08T12:54:32;25.92;;;13.52;;
57599;SDS011;43426;43.594;24.334;2023-02-08T12:56:59;21.65;;;13.02;;
57599;SDS011;43426;43.594;24.334;2023-02-08T12:59:29;20.50;;;13.02;;
57599;SDS011;43426;43.594;24.334;2023-02-08T13:02:01;22.60;;;15.27;;
57599;SDS011;43426;43.594;24.334;2023-02-08T13:04:37;22.75;;;14.68;;
57599;SDS011;43426;43.594;24.334;2023-02-08T13:12:28;19.65;;;13.50;;
57599;SDS011;43426;43.594;24.334;2023-02-08T13:15:06;14.27;;;10.10;;
57599;SDS011;43426;43.594;24.334;2023-02-08T13:17:44;22.50;;;12.52;;
57599;SDS011;43426;43.594;24.334;2023-02-08T13:20:33;21.13;;;13.00;;
57599;SDS011;43426;43.594;24.334;2023-02-08T13:26:00;20.98;;;13.63;;
57599;SDS011;43426;43.594;24.334;2023-02-08T13:28:30;20.98;;;13.95;;
57599;SDS011;43426;43.594;24.334;2023-02-08T13:30:58;21.73;;;14.93;;
57599;SDS011;43426;43.594;24.334;2023-02-08T13:33:35;22.67;;;13.60;;
57599;SDS011;43426;43.594;24.334;2023-02-08T13:36:17;22.25;;;14.10;;
57599;SDS011;43426;43.594;24.334;2023-02-08T13:38:45;21.15;;;13.00;;
57599;SDS011;43426;43.594;24.334;2023-02-08T13:41:16;19.48;;;14.00;;
57599;SDS011;43426;43.594;24.334;2023-02-08T13:46:16;20.92;;;12.88;;
57599;SDS011;43426;43.594;24.334;2023-02-08T14:04:46;20.63;;;12.02;;
57599;SDS011;43426;43.594;24.334;2023-02-08T14:07:16;20.95;;;11.77;;
57599;SDS011;43426;43.594;24.334;2023-02-08T14:17:45;24.33;;;14.50;;
57599;SDS011;43426;43.594;24.334;2023-02-08T14:20:21;22.58;;;13.43;;
57599;SDS011;43426;43.594;24.334;2023-02-08T14:23:18;22.02;;;13.80;;
57599;SDS011;43426;43.594;24.334;2023-02-08T14:25:48;19.50;;;11.95;;
57599;SDS011;43426;43.594;24.334;2023-02-08T14:30:50;17.35;;;12.35;;
57599;SDS011;43426;43.594;24.334;2023-02-08T14:33:20;20.38;;;12.35;;
57599;SDS011;43426;43.594;24.334;2023-02-08T14:35:54;18.02;;;11.27;;
57599;SDS011;43426;43.594;24.334;2023-02-08T14:41:00;18.73;;;12.00;;
57599;SDS011;43426;43.594;24.334;2023-02-08T14:43:36;17.60;;;11.85;;
57599;SDS011;43426;43.594;24.334;2023-02-08T14:49:04;14.65;;;10.23;;
57599;SDS011;43426;43.594;24.334;2023-02-08T14:51:36;14.73;;;10.60;;
57599;SDS011;43426;43.594;24.334;2023-02-08T14:54:13;15.82;;;10.23;;
57599;SDS011;43426;43.594;24.334;2023-02-08T14:56:53;17.48;;;10.25;;
57599;SDS011;43426;43.594;24.334;2023-02-08T14:59:24;16.92;;;11.90;;
57599;SDS011;43426;43.594;24.334;2023-02-08T15:01:55;18.02;;;10.73;;
57599;SDS011;43426;43.594;24.334;2023-02-08T15:04:24;16.30;;;11.45;;
57599;SDS011;43426;43.594;24.334;2023-02-08T15:09:25;19.67;;;12.55;;
57599;SDS011;43426;43.594;24.334;2023-02-08T15:14:47;16.60;;;9.98;;
57599;SDS011;43426;43.594;24.334;2023-02-08T15:17:18;18.50;;;11.60;;
57599;SDS011;43426;43.594;24.334;2023-02-08T15:19:54;21.10;;;11.98;;
57599;SDS011;43426;43.594;24.334;2023-02-08T15:24:52;21.80;;;13.80;;
57599;SDS011;43426;43.594;24.334;2023-02-08T15:27:25;17.35;;;11.43;;
57599;SDS011;43426;43.594;24.334;2023-02-08T15:29:58;17.77;;;12.40;;
57599;SDS011;43426;43.594;24.334;2023-02-08T15:32:25;17.30;;;11.45;;
57599;SDS011;43426;43.594;24.334;2023-02-08T15:37:29;19.73;;;12.60;;
57599;SDS011;43426;43.594;24.334;2023-02-08T15:39:57;22.45;;;12.93;;
57599;SDS011;43426;43.594;24.334;2023-02-08T15:42:25;20.02;;;12.63;;
57599;SDS011;43426;43.594;24.334;2023-02-08T15:44:55;22.35;;;13.20;;
57599;SDS011;43426;43.594;24.334;2023-02-08T15:47:23;20.35;;;11.93;;
57599;SDS011;43426;43.594;24.334;2023-02-08T15:49:52;24.90;;;12.52;;
57599;SDS011;43426;43.594;24.334;2023-02-08T15:52:21;18.50;;;12.73;;
57599;SDS011;43426;43.594;24.334;2023-02-08T15:54:49;17.25;;;10.70;;
57599;SDS011;43426;43.594;24.334;2023-02-08T15:57:18;15.10;;;11.88;;
57599;SDS011;43426;43.594;24.334;2023-02-08T16:00:16;18.13;;;12.07;;
57599;SDS011;43426;43.594;24.334;2023-02-08T16:02:48;18.55;;;13.23;;
57599;SDS011;43426;43.594;24.334;2023-02-08T16:05:18;22.08;;;13.48;;
57599;SDS011;43426;43.594;24.334;2023-02-08T16:07:45;19.20;;;12.90;;
57599;SDS011;43426;43.594;24.334;2023-02-08T16:13:03;18.85;;;12.95;;
57599;SDS011;43426;43.594;24.334;2023-02-08T16:26:23;27.05;;;15.57;;
57599;SDS011;43426;43.594;24.334;2023-02-08T16:28:57;27.17;;;15.18;;
57599;SDS011;43426;43.594;24.334;2023-02-08T16:31:29;23.23;;;15.73;;
57599;SDS011;43426;43.594;24.334;2023-02-08T16:34:05;24.27;;;15.73;;
57599;SDS011;43426;43.594;24.334;2023-02-08T16:36:39;26.13;;;16.63;;
57599;SDS011;43426;43.594;24.334;2023-02-08T16:41:59;24.77;;;16.60;;
57599;SDS011;43426;43.594;24.334;2023-02-08T16:44:26;25.20;;;15.45;;
57599;SDS011;43426;43.594;24.334;2023-02-08T16:46:54;28.10;;;16.83;;
57599;SDS011;43426;43.594;24.334;2023-02-08T16:49:21;25.52;;;16.98;;
57599;SDS011;43426;43.594;24.334;2023-02-08T16:51:46;28.05;;;17.23;;
57599;SDS011;43426;43.594;24.334;2023-02-08T16:54:13;25.88;;;16.35;;
57599;SDS011;43426;43.594;24.334;2023-02-08T16:56:42;26.80;;;15.90;;
57599;SDS011;43426;43.594;24.334;2023-02-08T16:59:10;26.67;;;17.55;;
57599;SDS011;43426;43.594;24.334;2023-02-08T17:01:36;23.17;;;15.15;;
57599;SDS011;43426;43.594;24.334;2023-02-08T17:04:02;23.92;;;15.52;;
57599;SDS011;43426;43.594;24.334;2023-02-08T17:06:29;25.08;;;16.83;;
57599;SDS011;43426;43.594;24.334;2023-02-08T17:08:56;26.40;;;16.70;;
57599;SDS011;43426;43.594;24.334;2023-02-08T17:11:23;25.13;;;16.50;;
57599;SDS011;43426;43.594;24.334;2023-02-08T17:13:49;26.80;;;16.15;;
57599;SDS011;43426;43.594;24.334;2023-02-08T17:16:38;24.90;;;16.33;;
57599;SDS011;43426;43.594;24.334;2023-02-08T17:19:09;28.13;;;16.48;;
57599;SDS011;43426;43.594;24.334;2023-02-08T17:21:40;26.85;;;17.08;;
57599;SDS011;43426;43.594;24.334;2023-02-08T17:24:05;28.33;;;17.65;;
57599;SDS011;43426;43.594;24.334;2023-02-08T17:29:07;27.17;;;17.55;;
57599;SDS011;43426;43.594;24.334;2023-02-08T17:31:34;27.95;;;17.02;;
57599;SDS011;43426;43.594;24.334;2023-02-08T17:33:59;28.95;;;17.48;;
57599;SDS011;43426;43.594;24.334;2023-02-08T17:36:31;29.27;;;18.00;;
57599;SDS011;43426;43.594;24.334;2023-02-08T17:38:59;33.58;;;18.27;;
57599;SDS011;43426;43.594;24.334;2023-02-08T17:41:25;50.10;;;18.52;;
57599;SDS011;43426;43.594;24.334;2023-02-08T17:43:51;30.65;;;17.30;;
57599;SDS011;43426;43.594;24.334;2023-02-08T17:46:20;28.90;;;17.98;;
57599;SDS011;43426;43.594;24.334;2023-02-08T17:48:50;30.50;;;19.27;;